sensor_id;sensor_type;location;lat;lon;timestamp;pressure;altitude;pressure_sealevel;temperature;humidity
52839;BME280;39219;53.678;9.856;2022-09-21T00:01:29;102326.00;;;6.70;100.00
52839;BME280;39219;53.678;9.856;2022-09-21T00:03:57;102325.81;;;6.57;100.00
52839;BME280;39219;53.678;9.856;2022-09-21T00:06:26;102329.44;;;6.64;100.00
52839;BME280;39219;53.678;9.856;2022-09-21T00:08:53;102326.97;;;6.73;100.00
52839;BME280;39219;53.678;9.856;2022-09-21T00:11:22;102329.59;;;6.73;100.00
52839;BME280;39219;53.678;9.856;2022-09-21T00:13:51;102333.88;;;6.66;100.00
52839;BME280;39219;53.678;9.856;2022-09-21T00:16:19;102332.75;;;6.54;100.00
52839;BME280;39219;53.678;9.856;2022-09-21T00:18:47;102332.09;;;6.65;100.00
52839;BME280;39219;53.678;9.856;2022-09-21T00:21:14;102337.22;;;6.56;100.00
52839;BME280;39219;53.678;9.856;2022-09-21T00:23:42;102336.00;;;6.39;100.00
52839;BME280;39219;53.678;9.856;2022-09-21T00:26:10;102333.25;;;6.32;100.00
52839;BME280;39219;53.678;9.856;2022-09-21T00:28:38;102344.16;;;6.51;100.00
52839;BME280;39219;53.678;9.856;2022-09-21T00:31:07;102340.31;;;6.33;100.00
52839;BME280;39219;53.678;9.856;2022-09-21T00:33:36;102340.09;;;6.22;100.00
52839;BME280;39219;53.678;9.856;2022-09-21T00:36:05;102339.94;;;6.15;100.00
52839;BME280;39219;53.678;9.856;2022-09-21T00:38:33;102342.69;;;6.19;100.00
52839;BME280;39219;53.678;9.856;2022-09-21T00:41:00;102344.66;;;6.31;100.00
52839;BME280;39219;53.678;9.856;2022-09-21T00:43:27;102340.72;;;6.11;100.00
52839;BME280;39219;53.678;9.856;2022-09-21T00:45:58;102349.03;;;6.31;100.00
52839;BME280;39219;53.678;9.856;2022-09-21T00:48:26;102343.94;;;6.40;100.00
52839;BME280;39219;53.678;9.856;2022-09-21T00:50:55;102352.53;;;6.30;100.00
52839;BME280;39219;53.678;9.856;2022-09-21T00:53:24;102354.28;;;6.29;100.00
52839;BME280;39219;53.678;9.856;2022-09-21T00:55:53;102353.28;;;6.22;100.00
52839;BME280;39219;53.678;9.856;2022-09-21T00:58:24;102350.78;;;6.29;100.00
52839;BME280;39219;53.678;9.856;2022-09-21T01:00:52;102348.63;;;6.11;100.00
52839;BME280;39219;53.678;9.856;2022-09-21T01:03:19;102352.72;;;5.98;100.00
52839;BME280;39219;53.678;9.856;2022-09-21T01:05:46;102354.16;;;5.82;100.00
52839;BME280;39219;53.678;9.856;2022-09-21T01:08:13;102348.16;;;5.89;100.00
52839;BME280;39219;53.678;9.856;2022-09-21T01:10:56;102353.59;;;5.97;100.00
52839;BME280;39219;53.678;9.856;2022-09-21T01:13:32;102349.09;;;5.92;100.00
52839;BME280;39219;53.678;9.856;2022-09-21T01:16:06;102347.25;;;5.87;100.00
52839;BME280;39219;53.678;9.856;2022-09-21T01:18:41;102345.06;;;5.69;100.00
52839;BME280;39219;53.678;9.856;2022-09-21T01:21:19;102349.34;;;5.63;100.00
52839;BME280;39219;53.678;9.856;2022-09-21T01:24:06;102342.06;;;5.52;100.00
52839;BME280;39219;53.678;9.856;2022-09-21T01:26:49;102348.47;;;5.64;100.00
52839;BME280;39219;53.678;9.856;2022-09-21T01:29:29;102353.03;;;5.72;100.00
52839;BME280;39219;53.678;9.856;2022-09-21T01:32:00;102353.75;;;5.63;100.00
52839;BME280;39219;53.678;9.856;2022-09-21T01:34:35;102357.00;;;5.53;100.00
52839;BME280;39219;53.678;9.856;2022-09-21T01:37:09;102363.75;;;5.40;100.00
52839;BME280;39219;53.678;9.856;2022-09-21T01:39:39;102356.72;;;5.40;100.00
52839;BME280;39219;53.678;9.856;2022-09-21T01:42:07;102360.88;;;5.69;100.00
52839;BME280;39219;53.678;9.856;2022-09-21T01:44:38;102366.75;;;5.55;100.00
52839;BME280;39219;53.678;9.856;2022-09-21T01:47:09;102360.06;;;5.33;100.00
52839;BME280;39219;53.678;9.856;2022-09-21T01:49:40;102360.63;;;5.19;100.00
52839;BME280;39219;53.678;9.856;2022-09-21T01:52:13;102360.72;;;5.23;100.00
52839;BME280;39219;53.678;9.856;2022-09-21T01:54:44;102363.44;;;5.27;100.00
52839;BME280;39219;53.678;9.856;2022-09-21T01:57:15;102360.88;;;5.30;100.00
52839;BME280;39219;53.678;9.856;2022-09-21T01:59:50;102361.22;;;5.44;100.00
52839;BME280;39219;53.678;9.856;2022-09-21T02:02:21;102357.91;;;5.53;100.00
52839;BME280;39219;53.678;9.856;2022-09-21T02:04:49;102358.22;;;5.67;100.00
52839;BME280;39219;53.678;9.856;2022-09-21T02:07:16;102355.31;;;5.55;100.00
52839;BME280;39219;53.678;9.856;2022-09-21T02:09:43;102366.22;;;5.33;100.00
52839;BME280;39219;53.678;9.856;2022-09-21T02:12:11;102364.53;;;5.36;100.00
52839;BME280;39219;53.678;9.856;2022-09-21T02:14:38;102363.00;;;5.45;100.00
52839;BME280;39219;53.678;9.856;2022-09-21T02:17:15;102368.25;;;5.45;100.00
52839;BME280;39219;53.678;9.856;2022-09-21T02:19:54;102358.56;;;5.43;100.00
52839;BME280;39219;53.678;9.856;2022-09-21T02:22:29;102359.56;;;5.49;100.00
52839;BME280;39219;53.678;9.856;2022-09-21T02:25:04;102362.41;;;5.57;100.00
52839;BME280;39219;53.678;9.856;2022-09-21T02:27:35;102370.88;;;5.44;100.00
52839;BME280;39219;53.678;9.856;2022-09-21T02:30:06;102367.00;;;5.28;100.00
52839;BME280;39219;53.678;9.856;2022-09-21T02:32:40;102371.03;;;5.50;100.00
52839;BME280;39219;53.678;9.856;2022-09-21T02:35:20;102372.81;;;5.51;100.00
52839;BME280;39219;53.678;9.856;2022-09-21T02:37:54;102366.84;;;5.23;100.00
52839;BME280;39219;53.678;9.856;2022-09-21T02:40:29;102379.34;;;5.32;100.00
52839;BME280;39219;53.678;9.856;2022-09-21T02:43:00;102373.72;;;5.16;100.00
52839;BME280;39219;53.678;9.856;2022-09-21T02:45:30;102375.91;;;5.34;100.00
52839;BME280;39219;53.678;9.856;2022-09-21T02:48:02;102376.47;;;5.58;100.00
52839;BME280;39219;53.678;9.856;2022-09-21T02:50:34;102365.81;;;5.53;100.00
52839;BME280;39219;53.678;9.856;2022-09-21T02:53:04;102366.69;;;5.52;100.00
52839;BME280;39219;53.678;9.856;2022-09-21T02:55:32;102375.09;;;5.37;100.00
52839;BME280;39219;53.678;9.856;2022-09-21T02:58:01;102371.03;;;5.50;100.00
52839;BME280;39219;53.678;9.856;2022-09-21T03:00:30;102372.66;;;5.45;100.00
52839;BME280;39219;53.678;9.856;2022-09-21T03:02:56;102381.09;;;5.31;100.00
52839;BME280;39219;53.678;9.856;2022-09-21T03:05:24;102384.38;;;5.21;100.00
52839;BME280;39219;53.678;9.856;2022-09-21T03:07:51;102380.47;;;5.42;100.00
52839;BME280;39219;53.678;9.856;2022-09-21T03:10:18;102383.50;;;5.59;100.00
52839;BME280;39219;53.678;9.856;2022-09-21T03:12:45;102376.94;;;5.41;100.00
52839;BME280;39219;53.678;9.856;2022-09-21T03:15:11;102388.91;;;5.27;100.00
52839;BME280;39219;53.678;9.856;2022-09-21T03:17:40;102385.28;;;5.23;100.00
52839;BME280;39219;53.678;9.856;2022-09-21T03:20:07;102393.97;;;5.19;100.00
52839;BME280;39219;53.678;9.856;2022-09-21T03:22:36;102397.78;;;5.32;100.00
52839;BME280;39219;53.678;9.856;2022-09-21T03:25:02;102398.16;;;5.47;100.00
52839;BME280;39219;53.678;9.856;2022-09-21T03:27:29;102395.69;;;5.54;100.00
52839;BME280;39219;53.678;9.856;2022-09-21T03:29:55;102397.84;;;5.33;100.00
52839;BME280;39219;53.678;9.856;2022-09-21T03:32:22;102401.25;;;5.29;100.00
52839;BME280;39219;53.678;9.856;2022-09-21T03:34:48;102399.53;;;5.30;100.00
52839;BME280;39219;53.678;9.856;2022-09-21T03:37:15;102396.75;;;5.24;100.00
52839;BME280;39219;53.678;9.856;2022-09-21T03:39:43;102394.81;;;5.18;100.00
52839;BME280;39219;53.678;9.856;2022-09-21T03:42:11;102396.41;;;5.11;100.00
52839;BME280;39219;53.678;9.856;2022-09-21T03:44:38;102401.78;;;5.16;100.00
52839;BME280;39219;53.678;9.856;2022-09-21T03:47:05;102398.19;;;5.12;100.00
52839;BME280;39219;53.678;9.856;2022-09-21T03:49:31;102392.78;;;5.06;100.00
52839;BME280;39219;53.678;9.856;2022-09-21T03:51:58;102404.84;;;4.98;100.00
52839;BME280;39219;53.678;9.856;2022-09-21T03:54:25;102398.66;;;4.96;100.00
52839;BME280;39219;53.678;9.856;2022-09-21T03:56:53;102396.38;;;5.10;100.00
52839;BME280;39219;53.678;9.856;2022-09-21T03:59:19;102399.97;;;5.13;100.00
52839;BME280;39219;53.678;9.856;2022-09-21T04:01:45;102400.91;;;5.15;100.00
52839;BME280;39219;53.678;9.856;2022-09-21T04:04:12;102404.47;;;5.17;100.00
52839;BME280;39219;53.678;9.856;2022-09-21T04:06:40;102400.69;;;5.06;100.00
52839;BME280;39219;53.678;9.856;2022-09-21T04:09:10;102392.53;;;4.97;100.00
52839;BME280;39219;53.678;9.856;2022-09-21T04:11:36;102399.00;;;5.10;100.00
52839;BME280;39219;53.678;9.856;2022-09-21T04:14:04;102398.22;;;5.14;100.00
52839;BME280;39219;53.678;9.856;2022-09-21T04:16:31;102397.59;;;5.23;100.00
52839;BME280;39219;53.678;9.856;2022-09-21T04:18:57;102392.19;;;5.18;100.00
52839;BME280;39219;53.678;9.856;2022-09-21T04:21:24;102401.00;;;5.18;100.00
52839;BME280;39219;53.678;9.856;2022-09-21T04:23:50;102399.38;;;5.25;100.00
52839;BME280;39219;53.678;9.856;2022-09-21T04:26:21;102395.03;;;5.26;100.00
52839;BME280;39219;53.678;9.856;2022-09-21T04:28:48;102393.31;;;5.28;100.00
52839;BME280;39219;53.678;9.856;2022-09-21T04:31:16;102399.53;;;5.30;100.00
52839;BME280;39219;53.678;9.856;2022-09-21T04:33:43;102393.09;;;5.18;100.00
52839;BME280;39219;53.678;9.856;2022-09-21T04:36:09;102396.66;;;5.21;100.00
52839;BME280;39219;53.678;9.856;2022-09-21T04:38:35;102396.56;;;5.17;100.00
52839;BME280;39219;53.678;9.856;2022-09-21T04:41:02;102395.81;;;5.22;100.00
52839;BME280;39219;53.678;9.856;2022-09-21T04:43:29;102394.72;;;5.13;100.00
52839;BME280;39219;53.678;9.856;2022-09-21T04:45:55;102399.41;;;4.92;100.00
52839;BME280;39219;53.678;9.856;2022-09-21T04:48:23;102411.69;;;4.91;100.00
52839;BME280;39219;53.678;9.856;2022-09-21T04:50:50;102408.44;;;5.01;100.00
52839;BME280;39219;53.678;9.856;2022-09-21T04:53:16;102407.75;;;5.09;100.00
52839;BME280;39219;53.678;9.856;2022-09-21T04:55:43;102406.34;;;4.88;100.00
52839;BME280;39219;53.678;9.856;2022-09-21T04:58:10;102406.97;;;4.79;100.00
52839;BME280;39219;53.678;9.856;2022-09-21T05:00:36;102413.06;;;4.77;100.00
52839;BME280;39219;53.678;9.856;2022-09-21T05:03:03;102409.00;;;4.88;100.00
52839;BME280;39219;53.678;9.856;2022-09-21T05:05:30;102412.75;;;4.98;100.00
52839;BME280;39219;53.678;9.856;2022-09-21T05:07:57;102417.06;;;4.96;100.00
52839;BME280;39219;53.678;9.856;2022-09-21T05:10:23;102421.66;;;5.03;100.00
52839;BME280;39219;53.678;9.856;2022-09-21T05:12:49;102417.88;;;5.27;100.00
52839;BME280;39219;53.678;9.856;2022-09-21T05:15:16;102418.16;;;5.38;100.00
52839;BME280;39219;53.678;9.856;2022-09-21T05:17:43;102425.34;;;5.45;100.00
52839;BME280;39219;53.678;9.856;2022-09-21T05:20:10;102427.13;;;5.46;100.00
52839;BME280;39219;53.678;9.856;2022-09-21T05:22:38;102432.25;;;5.40;100.00
52839;BME280;39219;53.678;9.856;2022-09-21T05:25:06;102429.63;;;5.40;100.00
52839;BME280;39219;53.678;9.856;2022-09-21T05:27:33;102428.31;;;5.59;100.00
52839;BME280;39219;53.678;9.856;2022-09-21T05:30:00;102426.91;;;5.73;100.00
52839;BME280;39219;53.678;9.856;2022-09-21T05:32:29;102435.91;;;5.83;100.00
52839;BME280;39219;53.678;9.856;2022-09-21T05:35:06;102436.09;;;5.91;100.00
52839;BME280;39219;53.678;9.856;2022-09-21T05:37:47;102431.25;;;6.08;100.00
52839;BME280;39219;53.678;9.856;2022-09-21T05:40:16;102428.97;;;6.25;100.00
52839;BME280;39219;53.678;9.856;2022-09-21T05:42:43;102433.31;;;6.23;100.00
52839;BME280;39219;53.678;9.856;2022-09-21T05:45:13;102438.91;;;6.39;100.00
52839;BME280;39219;53.678;9.856;2022-09-21T05:47:48;102442.88;;;6.59;100.00
52839;BME280;39219;53.678;9.856;2022-09-21T05:50:27;102437.91;;;6.76;100.00
52839;BME280;39219;53.678;9.856;2022-09-21T05:53:05;102431.25;;;6.97;100.00
52839;BME280;39219;53.678;9.856;2022-09-21T05:55:42;102431.56;;;7.14;100.00
52839;BME280;39219;53.678;9.856;2022-09-21T05:58:16;102435.34;;;7.29;100.00
52839;BME280;39219;53.678;9.856;2022-09-21T06:00:52;102437.72;;;7.67;100.00
52839;BME280;39219;53.678;9.856;2022-09-21T06:03:26;102443.63;;;8.10;100.00
52839;BME280;39219;53.678;9.856;2022-09-21T06:05:53;102447.78;;;8.54;100.00
52839;BME280;39219;53.678;9.856;2022-09-21T06:08:21;102449.25;;;9.08;100.00
52839;BME280;39219;53.678;9.856;2022-09-21T06:10:47;102448.75;;;9.52;100.00
52839;BME280;39219;53.678;9.856;2022-09-21T06:13:14;102449.91;;;9.90;99.39
52839;BME280;39219;53.678;9.856;2022-09-21T06:15:41;102448.38;;;10.34;100.00
52839;BME280;39219;53.678;9.856;2022-09-21T06:18:08;102446.81;;;10.93;100.00
52839;BME280;39219;53.678;9.856;2022-09-21T06:20:35;102451.31;;;11.77;100.00
52839;BME280;39219;53.678;9.856;2022-09-21T06:23:01;102454.56;;;12.72;100.00
52839;BME280;39219;53.678;9.856;2022-09-21T06:25:29;102452.13;;;13.69;91.34
52839;BME280;39219;53.678;9.856;2022-09-21T06:28:00;102461.44;;;14.19;83.65
52839;BME280;39219;53.678;9.856;2022-09-21T06:30:28;102466.47;;;14.46;78.41
52839;BME280;39219;53.678;9.856;2022-09-21T06:32:58;102466.16;;;14.68;76.64
52839;BME280;39219;53.678;9.856;2022-09-21T06:35:25;102460.72;;;14.77;72.58
52839;BME280;39219;53.678;9.856;2022-09-21T06:37:51;102475.81;;;14.81;68.94
52839;BME280;39219;53.678;9.856;2022-09-21T06:40:18;102470.81;;;14.53;68.60
52839;BME280;39219;53.678;9.856;2022-09-21T06:42:45;102466.69;;;14.24;70.87
52839;BME280;39219;53.678;9.856;2022-09-21T06:45:12;102472.72;;;14.43;73.80
52839;BME280;39219;53.678;9.856;2022-09-21T06:47:38;102475.78;;;14.84;71.85
52839;BME280;39219;53.678;9.856;2022-09-21T06:50:06;102471.81;;;15.13;69.56
52839;BME280;39219;53.678;9.856;2022-09-21T06:52:32;102474.59;;;15.05;69.12
52839;BME280;39219;53.678;9.856;2022-09-21T06:54:59;102477.56;;;15.43;67.64
52839;BME280;39219;53.678;9.856;2022-09-21T06:57:25;102476.59;;;15.49;67.61
52839;BME280;39219;53.678;9.856;2022-09-21T06:59:53;102482.72;;;15.55;68.36
52839;BME280;39219;53.678;9.856;2022-09-21T07:02:19;102487.47;;;15.38;68.08
52839;BME280;39219;53.678;9.856;2022-09-21T07:04:46;102486.09;;;15.12;68.49
52839;BME280;39219;53.678;9.856;2022-09-21T07:07:12;102482.41;;;14.50;70.04
52839;BME280;39219;53.678;9.856;2022-09-21T07:09:39;102485.97;;;14.52;72.06
52839;BME280;39219;53.678;9.856;2022-09-21T07:12:06;102483.81;;;14.84;73.52
52839;BME280;39219;53.678;9.856;2022-09-21T07:14:33;102486.59;;;15.37;71.60
52839;BME280;39219;53.678;9.856;2022-09-21T07:17:01;102485.22;;;15.66;68.46
52839;BME280;39219;53.678;9.856;2022-09-21T07:19:27;102492.22;;;15.74;69.67
52839;BME280;39219;53.678;9.856;2022-09-21T07:21:53;102491.75;;;15.48;68.19
52839;BME280;39219;53.678;9.856;2022-09-21T07:24:20;102482.06;;;15.41;71.07
52839;BME280;39219;53.678;9.856;2022-09-21T07:26:46;102483.78;;;15.45;71.94
52839;BME280;39219;53.678;9.856;2022-09-21T07:29:13;102488.22;;;15.46;70.58
52839;BME280;39219;53.678;9.856;2022-09-21T07:31:42;102495.00;;;15.69;69.08
52839;BME280;39219;53.678;9.856;2022-09-21T07:34:09;102490.56;;;16.18;71.29
52839;BME280;39219;53.678;9.856;2022-09-21T07:36:36;102489.13;;;16.46;69.56
52839;BME280;39219;53.678;9.856;2022-09-21T07:39:03;102488.53;;;16.31;69.15
52839;BME280;39219;53.678;9.856;2022-09-21T07:41:29;102490.66;;;16.13;69.35
52839;BME280;39219;53.678;9.856;2022-09-21T07:43:56;102498.16;;;15.93;64.81
52839;BME280;39219;53.678;9.856;2022-09-21T07:46:22;102498.06;;;15.99;70.46
52839;BME280;39219;53.678;9.856;2022-09-21T07:48:52;102499.31;;;16.26;70.74
52839;BME280;39219;53.678;9.856;2022-09-21T07:51:20;102504.09;;;16.57;69.12
52839;BME280;39219;53.678;9.856;2022-09-21T07:53:47;102496.16;;;16.51;68.25
52839;BME280;39219;53.678;9.856;2022-09-21T07:56:15;102499.41;;;16.67;66.92
52839;BME280;39219;53.678;9.856;2022-09-21T07:58:42;102491.94;;;17.59;68.35
52839;BME280;39219;53.678;9.856;2022-09-21T08:01:27;102496.59;;;18.53;62.94
52839;BME280;39219;53.678;9.856;2022-09-21T08:03:56;102499.72;;;19.56;60.21
52839;BME280;39219;53.678;9.856;2022-09-21T08:06:26;102503.09;;;20.15;58.67
52839;BME280;39219;53.678;9.856;2022-09-21T08:08:53;102508.19;;;20.48;56.61
52839;BME280;39219;53.678;9.856;2022-09-21T08:11:21;102507.00;;;20.32;56.43
52839;BME280;39219;53.678;9.856;2022-09-21T08:13:48;102519.16;;;20.91;56.84
52839;BME280;39219;53.678;9.856;2022-09-21T08:16:17;102509.78;;;21.24;55.90
52839;BME280;39219;53.678;9.856;2022-09-21T08:18:43;102519.50;;;21.28;53.66
52839;BME280;39219;53.678;9.856;2022-09-21T08:21:10;102518.53;;;21.30;52.98
52839;BME280;39219;53.678;9.856;2022-09-21T08:23:38;102522.03;;;21.55;54.41
52839;BME280;39219;53.678;9.856;2022-09-21T08:26:09;102522.19;;;21.95;53.29
52839;BME280;39219;53.678;9.856;2022-09-21T08:28:36;102518.78;;;22.52;53.58
52839;BME280;39219;53.678;9.856;2022-09-21T08:31:06;102516.88;;;23.11;52.13
52839;BME280;39219;53.678;9.856;2022-09-21T08:33:33;102523.16;;;23.50;50.59
52839;BME280;39219;53.678;9.856;2022-09-21T08:36:00;102524.06;;;23.31;48.65
52839;BME280;39219;53.678;9.856;2022-09-21T08:38:32;102527.25;;;23.40;49.65
52839;BME280;39219;53.678;9.856;2022-09-21T08:41:02;102531.03;;;23.55;46.76
52839;BME280;39219;53.678;9.856;2022-09-21T08:43:32;102526.16;;;23.61;47.91
52839;BME280;39219;53.678;9.856;2022-09-21T08:46:03;102533.09;;;23.49;48.22
52839;BME280;39219;53.678;9.856;2022-09-21T08:48:35;102526.03;;;23.28;48.49
52839;BME280;39219;53.678;9.856;2022-09-21T08:51:08;102526.81;;;23.30;49.79
52839;BME280;39219;53.678;9.856;2022-09-21T08:53:38;102533.50;;;23.22;49.81
52839;BME280;39219;53.678;9.856;2022-09-21T08:56:09;102523.81;;;23.36;49.11
52839;BME280;39219;53.678;9.856;2022-09-21T08:58:36;102524.41;;;23.24;48.48
52839;BME280;39219;53.678;9.856;2022-09-21T09:01:18;102527.25;;;23.40;47.29
52839;BME280;39219;53.678;9.856;2022-09-21T09:04:03;102535.13;;;22.69;49.77
52839;BME280;39219;53.678;9.856;2022-09-21T09:06:40;102531.69;;;22.03;51.49
52839;BME280;39219;53.678;9.856;2022-09-21T09:09:28;102532.34;;;21.88;52.75
52839;BME280;39219;53.678;9.856;2022-09-21T09:12:09;102529.41;;;21.73;57.10
52839;BME280;39219;53.678;9.856;2022-09-21T09:14:59;102531.56;;;22.07;55.59
52839;BME280;39219;53.678;9.856;2022-09-21T09:17:42;102528.22;;;22.21;53.63
52839;BME280;39219;53.678;9.856;2022-09-21T09:20:13;102527.91;;;21.87;55.23
52839;BME280;39219;53.678;9.856;2022-09-21T09:22:44;102533.25;;;21.88;57.17
52839;BME280;39219;53.678;9.856;2022-09-21T09:25:16;102540.72;;;22.04;55.47
52839;BME280;39219;53.678;9.856;2022-09-21T09:27:46;102530.16;;;21.98;53.26
52839;BME280;39219;53.678;9.856;2022-09-21T09:30:17;102532.47;;;21.42;54.86
52839;BME280;39219;53.678;9.856;2022-09-21T09:32:51;102532.72;;;21.13;57.23
52839;BME280;39219;53.678;9.856;2022-09-21T09:35:25;102532.06;;;21.29;58.90
52839;BME280;39219;53.678;9.856;2022-09-21T09:37:54;102532.19;;;21.26;60.34
52839;BME280;39219;53.678;9.856;2022-09-21T09:40:43;102532.78;;;21.34;60.74
52839;BME280;39219;53.678;9.856;2022-09-21T09:43:20;102532.97;;;21.52;59.45
52839;BME280;39219;53.678;9.856;2022-09-21T09:45:58;102531.88;;;21.56;58.83
52839;BME280;39219;53.678;9.856;2022-09-21T09:48:41;102538.63;;;21.45;57.51
52839;BME280;39219;53.678;9.856;2022-09-21T09:51:13;102537.22;;;21.35;57.88
52839;BME280;39219;53.678;9.856;2022-09-21T09:53:39;102537.94;;;20.94;56.58
52839;BME280;39219;53.678;9.856;2022-09-21T09:56:08;102531.50;;;20.75;55.38
52839;BME280;39219;53.678;9.856;2022-09-21T09:58:41;102539.03;;;20.41;57.00
52839;BME280;39219;53.678;9.856;2022-09-21T10:01:35;102535.19;;;20.48;61.63
52839;BME280;39219;53.678;9.856;2022-09-21T10:04:09;102532.94;;;20.36;56.15
52839;BME280;39219;53.678;9.856;2022-09-21T10:06:37;102531.88;;;20.40;57.89
52839;BME280;39219;53.678;9.856;2022-09-21T10:09:18;102528.53;;;20.57;53.96
52839;BME280;39219;53.678;9.856;2022-09-21T10:11:45;102529.34;;;20.84;55.07
52839;BME280;39219;53.678;9.856;2022-09-21T10:14:16;102532.75;;;20.90;48.26
52839;BME280;39219;53.678;9.856;2022-09-21T10:16:43;102537.13;;;20.68;50.88
52839;BME280;39219;53.678;9.856;2022-09-21T10:19:14;102535.91;;;20.77;54.04
52839;BME280;39219;53.678;9.856;2022-09-21T10:21:42;102541.19;;;21.04;54.44
52839;BME280;39219;53.678;9.856;2022-09-21T10:24:19;102535.44;;;21.36;54.42
52839;BME280;39219;53.678;9.856;2022-09-21T10:26:48;102539.00;;;21.36;49.49
52839;BME280;39219;53.678;9.856;2022-09-21T10:29:21;102535.78;;;21.49;54.33
52839;BME280;39219;53.678;9.856;2022-09-21T10:31:54;102528.38;;;21.32;51.15
52839;BME280;39219;53.678;9.856;2022-09-21T10:34:21;102527.94;;;21.20;48.19
52839;BME280;39219;53.678;9.856;2022-09-21T10:36:50;102525.97;;;21.24;47.28
52839;BME280;39219;53.678;9.856;2022-09-21T10:39:18;102518.00;;;21.21;51.42
52839;BME280;39219;53.678;9.856;2022-09-21T10:41:51;102518.41;;;21.11;53.94
52839;BME280;39219;53.678;9.856;2022-09-21T10:44:22;102516.88;;;21.26;52.20
52839;BME280;39219;53.678;9.856;2022-09-21T10:46:49;102515.88;;;21.51;52.51
52839;BME280;39219;53.678;9.856;2022-09-21T10:49:20;102516.66;;;21.53;51.35
52839;BME280;39219;53.678;9.856;2022-09-21T10:51:49;102511.66;;;21.66;51.56
52839;BME280;39219;53.678;9.856;2022-09-21T10:54:21;102513.34;;;21.69;50.08
52839;BME280;39219;53.678;9.856;2022-09-21T10:56:51;102516.34;;;21.61;47.94
52839;BME280;39219;53.678;9.856;2022-09-21T10:59:22;102509.44;;;21.54;45.05
52839;BME280;39219;53.678;9.856;2022-09-21T11:01:51;102514.41;;;21.42;50.55
52839;BME280;39219;53.678;9.856;2022-09-21T11:04:23;102508.38;;;21.58;52.44
52839;BME280;39219;53.678;9.856;2022-09-21T11:06:58;102510.53;;;21.50;45.91
52839;BME280;39219;53.678;9.856;2022-09-21T11:09:30;102514.88;;;21.32;44.64
52839;BME280;39219;53.678;9.856;2022-09-21T11:12:04;102508.03;;;21.45;47.30
52839;BME280;39219;53.678;9.856;2022-09-21T11:14:43;102507.97;;;21.24;47.00
52839;BME280;39219;53.678;9.856;2022-09-21T11:17:15;102509.63;;;20.82;44.37
52839;BME280;39219;53.678;9.856;2022-09-21T11:19:49;102499.38;;;20.43;51.77
52839;BME280;39219;53.678;9.856;2022-09-21T11:22:23;102504.41;;;20.78;49.95
52839;BME280;39219;53.678;9.856;2022-09-21T11:24:58;102513.50;;;21.21;47.45
52839;BME280;39219;53.678;9.856;2022-09-21T11:27:30;102504.78;;;21.14;46.19
52839;BME280;39219;53.678;9.856;2022-09-21T11:30:05;102514.91;;;21.30;48.21
52839;BME280;39219;53.678;9.856;2022-09-21T11:32:44;102508.44;;;21.56;50.47
52839;BME280;39219;53.678;9.856;2022-09-21T11:35:23;102513.44;;;21.45;41.23
52839;BME280;39219;53.678;9.856;2022-09-21T11:38:03;102510.81;;;20.97;44.82
52839;BME280;39219;53.678;9.856;2022-09-21T11:40:48;102504.06;;;20.62;43.75
52839;BME280;39219;53.678;9.856;2022-09-21T11:43:30;102505.34;;;20.75;49.67
52839;BME280;39219;53.678;9.856;2022-09-21T11:46:09;102503.63;;;20.98;47.41
52839;BME280;39219;53.678;9.856;2022-09-21T11:48:51;102507.59;;;21.34;46.68
52839;BME280;39219;53.678;9.856;2022-09-21T11:51:33;102499.72;;;21.50;50.09
52839;BME280;39219;53.678;9.856;2022-09-21T11:54:34;102502.47;;;21.91;52.24
52839;BME280;39219;53.678;9.856;2022-09-21T11:57:11;102509.66;;;21.92;48.08
52839;BME280;39219;53.678;9.856;2022-09-21T11:59:56;102491.66;;;21.91;46.90
52839;BME280;39219;53.678;9.856;2022-09-21T12:02:37;102494.50;;;21.67;43.84
52839;BME280;39219;53.678;9.856;2022-09-21T12:05:11;102492.34;;;20.86;45.03
52839;BME280;39219;53.678;9.856;2022-09-21T12:07:53;102488.97;;;19.81;46.54
52839;BME280;39219;53.678;9.856;2022-09-21T12:10:37;102480.53;;;19.65;51.60
52839;BME280;39219;53.678;9.856;2022-09-21T12:13:09;102482.44;;;20.14;52.94
52839;BME280;39219;53.678;9.856;2022-09-21T12:15:40;102485.72;;;20.48;47.26
52839;BME280;39219;53.678;9.856;2022-09-21T12:18:14;102486.16;;;20.35;47.63
52839;BME280;39219;53.678;9.856;2022-09-21T12:20:48;102483.59;;;20.07;47.70
52839;BME280;39219;53.678;9.856;2022-09-21T12:23:22;102483.44;;;20.37;48.97
52839;BME280;39219;53.678;9.856;2022-09-21T12:25:55;102482.81;;;20.76;46.86
52839;BME280;39219;53.678;9.856;2022-09-21T12:28:25;102483.53;;;21.05;47.03
52839;BME280;39219;53.678;9.856;2022-09-21T12:30:56;102484.50;;;21.25;48.67
52839;BME280;39219;53.678;9.856;2022-09-21T12:33:31;102477.66;;;21.38;44.49
52839;BME280;39219;53.678;9.856;2022-09-21T12:36:06;102472.75;;;21.26;38.16
52839;BME280;39219;53.678;9.856;2022-09-21T12:38:36;102469.78;;;21.11;43.55
52839;BME280;39219;53.678;9.856;2022-09-21T12:41:10;102475.91;;;20.93;41.29
52839;BME280;39219;53.678;9.856;2022-09-21T12:43:42;102471.06;;;20.79;43.68
52839;BME280;39219;53.678;9.856;2022-09-21T12:46:13;102460.25;;;20.55;46.43
52839;BME280;39219;53.678;9.856;2022-09-21T12:48:43;102463.91;;;20.78;42.84
52839;BME280;39219;53.678;9.856;2022-09-21T12:51:13;102472.91;;;20.77;44.13
52839;BME280;39219;53.678;9.856;2022-09-21T12:53:44;102464.94;;;20.74;45.18
52839;BME280;39219;53.678;9.856;2022-09-21T12:56:18;102464.38;;;20.65;39.46
52839;BME280;39219;53.678;9.856;2022-09-21T12:59:03;102462.50;;;20.20;41.73
52839;BME280;39219;53.678;9.856;2022-09-21T13:01:33;102451.81;;;20.17;41.48
52839;BME280;39219;53.678;9.856;2022-09-21T13:04:30;102454.91;;;20.30;38.68
52839;BME280;39219;53.678;9.856;2022-09-21T13:07:26;102452.69;;;20.17;38.20
52839;BME280;39219;53.678;9.856;2022-09-21T13:09:57;102444.59;;;19.92;42.74